Radome Status


Time Cell Pressure Wind mph Temp Com Gen Blower 1 Blower 2 Blower 3 Trigger Alarms Txt
Local net InWc Avg Peak Avg F Pow Pow State/Spd/Secs State/Spd/Secs HowOn/AcOut/secs Event Present Cnt
06:00:18OFF 2.69 2.7 11.3 13.1 34.23ONOFFOfL/0/0Opr/1/32000-AC-OFF/0///0
06:01:22OFF 2.71 2.7 10.9 13.1 34.32ONOFFOfL/0/0Opr/1/32065-AC-OFF/0///0
06:02:22OFF 2.71 2.7 10.0 13.4 34.29ONOFFOfL/0/0Opr/1/32125-AC-OFF/0///0
06:03:23OFF 2.70 2.7 10.5 13.8 34.22ONOFFOfL/0/0Opr/1/32186-AC-OFF/0///0
06:04:24OFF 2.70 2.7 10.3 12.1 34.20ONOFFOfL/0/0Opr/1/32246-AC-OFF/0///0
06:05:28OFF 2.71 2.7 9.5 11.4 34.16ONOFFOfL/0/0Opr/1/32311-AC-OFF/0///0
06:06:28OFF 2.69 2.7 11.7 12.7 34.14ONOFFOfL/0/0Opr/1/32371-AC-OFF/0///0
06:07:28OFF 2.71 2.7 8.8 10.7 34.13ONOFFOfL/0/0Opr/1/32431-AC-OFF/0///0
06:08:29OFF 2.72 2.7 8.6 11.4 34.01ONOFFOfL/0/0Opr/1/32491-AC-OFF/0///0
06:09:29OFF 2.71 2.7 8.7 10.0 33.85ONOFFOfL/0/0Opr/1/32551-AC-OFF/0///0
06:10:33OFF 2.71 2.7 9.0 11.4 33.71ONOFFOfL/0/0Opr/1/32616-AC-OFF/0///0
06:11:33OFF 2.70 2.7 8.8 11.0 33.61ONOFFOfL/0/0Opr/1/32676-AC-OFF/0///0
06:12:33OFF 2.72 2.7 8.9 11.7 33.49ONOFFOfL/0/0Opr/1/32736-AC-OFF/0///0
06:13:33OFF 2.71 2.7 8.2 10.0 33.34ONOFFOfL/0/0Opr/1/32796-AC-OFF/0///0
06:14:34OFF 2.70 2.7 9.3 10.0 33.28ONOFFOfL/0/0Opr/1/32856-AC-OFF/0///0
06:15:34OFF 2.71 2.7 10.2 12.4 33.30ONOFFOfL/0/0Opr/1/32916-AC-OFF/0///0
06:16:38OFF 2.71 2.7 8.6 10.0 33.32ONOFFOfL/0/0Opr/1/32981-AC-OFF/0///0
06:17:39OFF 2.71 2.7 7.9 9.0 33.22ONOFFOfL/0/0Opr/1/33042-AC-OFF/0///0
06:18:39OFF 2.71 2.7 8.6 9.7 33.10ONOFFOfL/0/0Opr/1/33102-AC-OFF/0///0
06:19:40OFF 2.73 2.7 7.1 8.3 32.95ONOFFOfL/0/0Opr/1/33162-AC-OFF/0///0
06:20:40OFF 2.73 2.7 7.2 8.3 32.75ONOFFOfL/0/0Opr/1/33222-AC-OFF/0///0
06:21:44OFF 2.71 2.7 7.4 8.6 32.54ONOFFOfL/0/0Opr/1/33287-AC-OFF/0///0
06:22:44OFF 2.71 2.7 6.3 8.3 32.34ONOFFOfL/0/0Opr/1/33347-AC-OFF/0///0
06:23:45OFF 2.72 2.7 6.9 9.3 32.19ONOFFOfL/0/0Opr/1/33407-AC-OFF/0///0
06:24:45OFF 2.72 2.7 6.8 9.3 32.15ONOFFOfL/0/0Opr/1/33467-AC-OFF/0///0
06:25:49OFF 2.71 2.7 7.4 10.0 32.14ONOFFOfL/0/0Opr/1/33532-AC-OFF/0///0
06:26:49OFF 2.70 2.7 8.7 11.4 32.22ONOFFOfL/0/0Opr/1/33592-AC-OFF/0///0
06:27:50OFF 2.72 2.7 7.9 9.7 32.38ONOFFOfL/0/0Opr/1/33652-AC-OFF/0///0
06:28:54OFF 2.71 2.7 8.5 9.3 32.48ONOFFOfL/0/0Opr/1/33717-AC-OFF/0///0
06:29:54OFF 2.71 2.7 8.3 10.3 32.53ONOFFOfL/0/0Opr/1/33777-AC-OFF/0///0
06:30:54OFF 2.75 2.7 8.8 9.3 32.55ONOFFOfL/0/0Opr/1/33837-AC-OFF/0///0
06:31:55OFF 2.72 2.7 8.1 9.7 32.50ONOFFOfL/0/0Opr/1/33897-AC-OFF/0///0
06:32:55OFF 2.72 2.7 9.1 10.3 32.47ONOFFOfL/0/0Opr/1/33958-AC-OFF/0///0
06:33:55OFF 2.72 2.7 9.8 11.7 32.51ONOFFOfL/0/0Opr/1/34018-AC-OFF/0///0
06:34:56OFF 2.72 2.7 9.2 10.7 32.54ONOFFOfL/0/0Opr/1/34078-AC-OFF/0///0
06:35:56OFF 2.72 2.7 9.2 12.4 32.57ONOFFOfL/0/0Opr/1/34138-AC-OFF/0///0
06:37:00OFF 2.70 2.7 8.1 10.3 32.50ONOFFOfL/0/0Opr/1/34203-AC-OFF/0///0
06:38:00OFF 2.71 2.7 8.9 10.0 32.42ONOFFOfL/0/0Opr/1/34263-AC-OFF/0///0
06:39:01OFF 2.72 2.7 8.6 10.0 32.39ONOFFOfL/0/0Opr/1/34323-AC-OFF/0///0
06:40:01OFF 2.73 2.7 8.3 9.3 32.36ONOFFOfL/0/0Opr/1/34384-AC-OFF/0///0
06:41:01OFF 2.73 2.7 7.6 9.7 32.23ONOFFOfL/0/0Opr/1/34444-AC-OFF/0///0
06:42:01OFF 2.70 2.7 8.7 11.0 32.10ONOFFOfL/0/0Opr/1/34504-AC-OFF/0///0
06:43:02OFF 2.73 2.7 6.6 8.3 31.99ONOFFOfL/0/0Opr/1/34564-AC-OFF/0///0
06:44:02OFF 2.74 2.7 5.7 7.6 31.81ONOFFOfL/0/0Opr/1/34624-AC-OFF/0///0
06:45:06OFF 2.75 2.7 5.9 6.9 31.61ONOFFOfL/0/0Opr/1/34689-AC-OFF/0///0
06:46:06OFF 2.73 2.7 5.9 6.9 31.39ONOFFOfL/0/0Opr/1/34749-AC-OFF/0///0
06:47:07OFF 2.74 2.7 6.0 7.6 31.14ONOFFOfL/0/0Opr/1/34809-AC-OFF/0///0
06:48:11OFF 2.75 2.7 5.6 6.2 30.82ONOFFOfL/0/0Opr/1/34874-AC-OFF/0///0
06:49:11OFF 2.74 2.7 5.5 5.9 30.42ONOFFOfL/0/0Opr/1/34934-AC-OFF/0///0
06:50:11OFF 2.74 2.7 5.7 6.6 30.06ONOFFOfL/0/0Opr/1/34994-AC-OFF/0///0
06:51:12OFF 2.74 2.7 5.2 6.2 29.79ONOFFOfL/0/0Opr/1/35054-AC-OFF/0///0
06:52:12OFF 2.73 2.7 4.6 5.9 29.62ONOFFOfL/0/0Opr/1/35115-AC-OFF/0///0
06:53:12OFF 2.73 2.7 2.7 3.2 29.54ONOFFOfL/0/0Opr/1/35175-AC-OFF/0///0
06:54:13OFF 2.73 2.7 2.4 3.5 29.45ONOFFOfL/0/0Opr/1/35235-AC-OFF/0///0
06:55:13OFF 2.74 2.7 2.0 3.2 29.31ONOFFOfL/0/0Opr/1/35295-AC-OFF/0///0
06:56:17OFF 2.74 2.7 1.9 3.2 29.14ONOFFOfL/0/0Opr/1/35360-AC-OFF/0///0
06:57:17OFF 2.73 2.7 2.8 3.5 28.95ONOFFOfL/0/0Opr/1/35420-AC-OFF/0///0
06:58:17OFF 2.71 2.7 3.7 4.9 28.78ONOFFOfL/0/0Opr/1/35480-AC-OFF/0///0
06:59:18OFF 2.69 2.7 4.4 6.6 28.61ONOFFOfL/0/0Opr/1/35540-AC-OFF/0///0
07:00:19OFF 2.71 2.7 5.7 6.2 28.54ONOFFOfL/0/0Opr/1/35601-AC-OFF/0///0
07:01:23OFF 2.72 2.7 5.6 6.2 28.65ONOFFOfL/0/0Opr/1/35666-AC-OFF/0///0
07:02:23OFF 2.73 2.7 5.6 6.6 28.84ONOFFOfL/0/0Opr/1/35726-AC-OFF/0///0
07:03:23OFF 2.72 2.7 5.7 6.9 29.07ONOFFOfL/0/0Opr/1/35786-AC-OFF/0///0
07:04:24OFF 2.72 2.7 5.7 6.6 29.23ONOFFOfL/0/0Opr/1/35846-AC-OFF/0///0
07:05:28OFF 2.72 2.7 5.7 6.9 29.33ONOFFOfL/0/0Opr/1/35911-AC-OFF/0///0
07:06:28OFF 2.74 2.7 5.3 5.9 29.39ONOFFOfL/0/0Opr/1/35971-AC-OFF/0///0
07:07:29OFF 2.73 2.7 4.2 5.2 29.41ONOFFOfL/0/0Opr/1/36031-AC-OFF/0///0
07:08:29OFF 2.74 2.7 3.6 4.5 29.36ONOFFOfL/0/0Opr/1/36091-AC-OFF/0///0
07:09:29OFF 2.74 2.7 2.0 4.2 29.32ONOFFOfL/0/0Opr/1/36152-AC-OFF/0///0
07:10:29OFF 2.74 2.7 2.5 3.8 29.35ONOFFOfL/0/0Opr/1/36212-AC-OFF/0///0


File ends on 20141222
Logs also available for previous period,
or for other periods.

Blower States: Reseting, Stopped, Starting, Testing, Operating, Faulted, OffLine